sensor_id;sensor_type;location;lat;lon;timestamp;P1;durP1;ratioP1;P2;durP2;ratioP2
46719;SDS011;32452;51.382;-0.002;2023-07-22T00:00:11;7.30;;;2.90;;
46719;SDS011;32452;51.382;-0.002;2023-07-22T00:03:05;9.20;;;3.30;;
46719;SDS011;32452;51.382;-0.002;2023-07-22T00:06:02;9.50;;;3.50;;
46719;SDS011;32452;51.382;-0.002;2023-07-22T00:08:51;10.48;;;3.72;;
46719;SDS011;32452;51.382;-0.002;2023-07-22T00:11:37;11.35;;;3.30;;
46719;SDS011;32452;51.382;-0.002;2023-07-22T00:14:33;10.45;;;3.55;;
46719;SDS011;32452;51.382;-0.002;2023-07-22T00:17:20;6.05;;;3.00;;
46719;SDS011;32452;51.382;-0.002;2023-07-22T00:20:07;7.38;;;2.70;;
46719;SDS011;32452;51.382;-0.002;2023-07-22T00:22:58;6.10;;;2.47;;
46719;SDS011;32452;51.382;-0.002;2023-07-22T00:25:44;4.93;;;2.17;;
46719;SDS011;32452;51.382;-0.002;2023-07-22T00:28:30;9.43;;;2.90;;
46719;SDS011;32452;51.382;-0.002;2023-07-22T00:31:15;11.75;;;3.22;;
46719;SDS011;32452;51.382;-0.002;2023-07-22T00:34:01;15.00;;;3.22;;
46719;SDS011;32452;51.382;-0.002;2023-07-22T00:36:47;6.72;;;2.33;;
46719;SDS011;32452;51.382;-0.002;2023-07-22T00:39:33;7.82;;;2.58;;
46719;SDS011;32452;51.382;-0.002;2023-07-22T00:42:22;7.75;;;2.88;;
46719;SDS011;32452;51.382;-0.002;2023-07-22T00:45:08;5.18;;;2.40;;
46719;SDS011;32452;51.382;-0.002;2023-07-22T00:47:54;5.75;;;2.40;;
46719;SDS011;32452;51.382;-0.002;2023-07-22T00:50:40;9.18;;;2.50;;
46719;SDS011;32452;51.382;-0.002;2023-07-22T00:53:31;7.45;;;2.35;;
46719;SDS011;32452;51.382;-0.002;2023-07-22T00:56:16;5.15;;;2.10;;
46719;SDS011;32452;51.382;-0.002;2023-07-22T00:59:03;9.48;;;2.33;;
46719;SDS011;32452;51.382;-0.002;2023-07-22T01:01:57;4.90;;;2.22;;
46719;SDS011;32452;51.382;-0.002;2023-07-22T01:04:42;6.95;;;2.58;;
46719;SDS011;32452;51.382;-0.002;2023-07-22T01:07:29;6.20;;;2.33;;
46719;SDS011;32452;51.382;-0.002;2023-07-22T01:10:15;9.35;;;2.00;;
46719;SDS011;32452;51.382;-0.002;2023-07-22T01:13:02;4.70;;;1.83;;
46719;SDS011;32452;51.382;-0.002;2023-07-22T01:15:47;5.13;;;2.22;;
46719;SDS011;32452;51.382;-0.002;2023-07-22T01:18:33;6.82;;;2.20;;
46719;SDS011;32452;51.382;-0.002;2023-07-22T01:21:22;4.18;;;1.73;;
46719;SDS011;32452;51.382;-0.002;2023-07-22T01:24:08;7.13;;;2.65;;
46719;SDS011;32452;51.382;-0.002;2023-07-22T01:26:53;4.15;;;1.77;;
46719;SDS011;32452;51.382;-0.002;2023-07-22T01:29:39;6.22;;;2.20;;
46719;SDS011;32452;51.382;-0.002;2023-07-22T01:32:25;4.68;;;1.55;;
46719;SDS011;32452;51.382;-0.002;2023-07-22T01:35:11;6.47;;;2.05;;
46719;SDS011;32452;51.382;-0.002;2023-07-22T01:37:59;3.97;;;1.50;;
46719;SDS011;32452;51.382;-0.002;2023-07-22T01:40:45;5.57;;;2.00;;
46719;SDS011;32452;51.382;-0.002;2023-07-22T01:43:30;3.65;;;2.00;;
46719;SDS011;32452;51.382;-0.002;2023-07-22T01:46:16;4.25;;;1.65;;
46719;SDS011;32452;51.382;-0.002;2023-07-22T01:49:05;7.38;;;2.38;;
46719;SDS011;32452;51.382;-0.002;2023-07-22T01:51:54;5.38;;;2.05;;
46719;SDS011;32452;51.382;-0.002;2023-07-22T01:54:41;5.43;;;1.88;;
46719;SDS011;32452;51.382;-0.002;2023-07-22T02:01:52;5.25;;;1.80;;
46719;SDS011;32452;51.382;-0.002;2023-07-22T02:04:38;3.65;;;1.80;;
46719;SDS011;32452;51.382;-0.002;2023-07-22T02:07:24;7.78;;;2.55;;
46719;SDS011;32452;51.382;-0.002;2023-07-22T02:10:11;5.38;;;2.03;;
46719;SDS011;32452;51.382;-0.002;2023-07-22T02:12:56;10.85;;;2.22;;
46719;SDS011;32452;51.382;-0.002;2023-07-22T02:15:42;6.22;;;2.30;;
46719;SDS011;32452;51.382;-0.002;2023-07-22T02:18:29;6.07;;;2.50;;
46719;SDS011;32452;51.382;-0.002;2023-07-22T02:21:15;4.07;;;1.83;;
46719;SDS011;32452;51.382;-0.002;2023-07-22T02:24:00;7.30;;;2.20;;
46719;SDS011;32452;51.382;-0.002;2023-07-22T02:26:46;6.57;;;2.95;;
46719;SDS011;32452;51.382;-0.002;2023-07-22T02:29:32;7.25;;;2.47;;
46719;SDS011;32452;51.382;-0.002;2023-07-22T02:32:17;7.07;;;2.40;;
46719;SDS011;32452;51.382;-0.002;2023-07-22T02:35:03;7.90;;;2.60;;
46719;SDS011;32452;51.382;-0.002;2023-07-22T02:37:49;7.95;;;2.22;;
46719;SDS011;32452;51.382;-0.002;2023-07-22T02:40:50;5.88;;;2.63;;
46719;SDS011;32452;51.382;-0.002;2023-07-22T02:43:43;7.32;;;2.30;;
46719;SDS011;32452;51.382;-0.002;2023-07-22T02:46:28;5.20;;;2.40;;
46719;SDS011;32452;51.382;-0.002;2023-07-22T02:49:15;8.25;;;2.42;;
46719;SDS011;32452;51.382;-0.002;2023-07-22T02:52:00;7.53;;;2.70;;
46719;SDS011;32452;51.382;-0.002;2023-07-22T02:55:03;11.63;;;2.45;;
46719;SDS011;32452;51.382;-0.002;2023-07-22T02:57:56;7.13;;;2.33;;
46719;SDS011;32452;51.382;-0.002;2023-07-22T03:00:41;6.18;;;2.42;;
46719;SDS011;32452;51.382;-0.002;2023-07-22T03:03:27;7.18;;;3.28;;
46719;SDS011;32452;51.382;-0.002;2023-07-22T03:06:14;9.80;;;2.40;;
46719;SDS011;32452;51.382;-0.002;2023-07-22T03:08:59;5.78;;;2.22;;
46719;SDS011;32452;51.382;-0.002;2023-07-22T03:11:45;11.38;;;2.30;;
46719;SDS011;32452;51.382;-0.002;2023-07-22T03:14:30;5.45;;;2.50;;
46719;SDS011;32452;51.382;-0.002;2023-07-22T03:17:22;8.18;;;2.33;;
46719;SDS011;32452;51.382;-0.002;2023-07-22T03:20:08;6.53;;;1.80;;
46719;SDS011;32452;51.382;-0.002;2023-07-22T03:23:00;4.80;;;2.33;;
46719;SDS011;32452;51.382;-0.002;2023-07-22T03:25:46;5.85;;;2.28;;
46719;SDS011;32452;51.382;-0.002;2023-07-22T03:28:35;8.20;;;2.55;;
46719;SDS011;32452;51.382;-0.002;2023-07-22T03:31:21;5.90;;;2.15;;
46719;SDS011;32452;51.382;-0.002;2023-07-22T03:34:07;4.28;;;2.13;;
46719;SDS011;32452;51.382;-0.002;2023-07-22T03:37:21;4.45;;;2.10;;
46719;SDS011;32452;51.382;-0.002;2023-07-22T03:40:07;11.55;;;2.80;;
46719;SDS011;32452;51.382;-0.002;2023-07-22T03:42:59;7.05;;;2.28;;
46719;SDS011;32452;51.382;-0.002;2023-07-22T03:45:44;3.22;;;2.05;;
46719;SDS011;32452;51.382;-0.002;2023-07-22T03:48:32;8.57;;;2.30;;
46719;SDS011;32452;51.382;-0.002;2023-07-22T03:51:18;4.63;;;2.00;;
46719;SDS011;32452;51.382;-0.002;2023-07-22T03:54:05;9.43;;;2.35;;
46719;SDS011;32452;51.382;-0.002;2023-07-22T03:56:50;4.05;;;2.13;;
46719;SDS011;32452;51.382;-0.002;2023-07-22T03:59:36;5.68;;;2.00;;
46719;SDS011;32452;51.382;-0.002;2023-07-22T04:02:21;4.70;;;2.05;;
46719;SDS011;32452;51.382;-0.002;2023-07-22T04:05:07;10.40;;;2.35;;
46719;SDS011;32452;51.382;-0.002;2023-07-22T04:07:53;8.63;;;2.08;;
46719;SDS011;32452;51.382;-0.002;2023-07-22T04:10:39;5.53;;;2.30;;
46719;SDS011;32452;51.382;-0.002;2023-07-22T04:13:25;6.30;;;1.83;;
46719;SDS011;32452;51.382;-0.002;2023-07-22T04:16:11;4.60;;;1.65;;
46719;SDS011;32452;51.382;-0.002;2023-07-22T04:18:57;5.65;;;2.10;;
46719;SDS011;32452;51.382;-0.002;2023-07-22T04:21:42;4.30;;;1.80;;
46719;SDS011;32452;51.382;-0.002;2023-07-22T04:24:28;7.40;;;2.58;;
46719;SDS011;32452;51.382;-0.002;2023-07-22T04:27:17;4.45;;;1.90;;
46719;SDS011;32452;51.382;-0.002;2023-07-22T04:30:03;5.43;;;2.05;;
46719;SDS011;32452;51.382;-0.002;2023-07-22T04:32:49;10.57;;;2.55;;
46719;SDS011;32452;51.382;-0.002;2023-07-22T04:35:36;5.15;;;2.22;;
46719;SDS011;32452;51.382;-0.002;2023-07-22T04:38:23;4.82;;;2.30;;
46719;SDS011;32452;51.382;-0.002;2023-07-22T04:41:08;6.18;;;1.88;;
46719;SDS011;32452;51.382;-0.002;2023-07-22T04:43:54;7.57;;;1.50;;
46719;SDS011;32452;51.382;-0.002;2023-07-22T04:46:39;6.47;;;1.90;;
46719;SDS011;32452;51.382;-0.002;2023-07-22T04:49:25;6.03;;;2.03;;
46719;SDS011;32452;51.382;-0.002;2023-07-22T04:52:11;5.40;;;1.63;;
46719;SDS011;32452;51.382;-0.002;2023-07-22T04:54:57;5.88;;;1.73;;
46719;SDS011;32452;51.382;-0.002;2023-07-22T04:57:42;7.68;;;1.80;;
46719;SDS011;32452;51.382;-0.002;2023-07-22T05:00:30;5.45;;;1.90;;
46719;SDS011;32452;51.382;-0.002;2023-07-22T05:03:15;8.55;;;2.03;;
46719;SDS011;32452;51.382;-0.002;2023-07-22T05:06:01;5.15;;;2.03;;
46719;SDS011;32452;51.382;-0.002;2023-07-22T05:08:46;5.97;;;1.60;;
46719;SDS011;32452;51.382;-0.002;2023-07-22T05:11:32;5.95;;;1.83;;
46719;SDS011;32452;51.382;-0.002;2023-07-22T05:14:18;4.78;;;1.60;;
46719;SDS011;32452;51.382;-0.002;2023-07-22T05:17:03;2.90;;;1.13;;
46719;SDS011;32452;51.382;-0.002;2023-07-22T05:19:49;5.80;;;1.80;;
46719;SDS011;32452;51.382;-0.002;2023-07-22T05:22:35;4.32;;;2.17;;
46719;SDS011;32452;51.382;-0.002;2023-07-22T05:25:21;4.45;;;1.50;;
46719;SDS011;32452;51.382;-0.002;2023-07-22T05:28:07;6.18;;;2.13;;
46719;SDS011;32452;51.382;-0.002;2023-07-22T05:30:53;3.58;;;1.10;;
46719;SDS011;32452;51.382;-0.002;2023-07-22T05:33:41;5.72;;;1.50;;
46719;SDS011;32452;51.382;-0.002;2023-07-22T05:36:26;5.72;;;1.60;;
46719;SDS011;32452;51.382;-0.002;2023-07-22T05:39:12;6.68;;;1.77;;
46719;SDS011;32452;51.382;-0.002;2023-07-22T05:41:58;3.42;;;1.45;;
46719;SDS011;32452;51.382;-0.002;2023-07-22T05:44:43;5.47;;;1.70;;
46719;SDS011;32452;51.382;-0.002;2023-07-22T05:47:29;3.70;;;1.42;;
46719;SDS011;32452;51.382;-0.002;2023-07-22T05:50:14;4.80;;;1.63;;
46719;SDS011;32452;51.382;-0.002;2023-07-22T05:53:00;3.08;;;1.58;;
46719;SDS011;32452;51.382;-0.002;2023-07-22T05:55:45;4.07;;;1.42;;
46719;SDS011;32452;51.382;-0.002;2023-07-22T05:58:31;2.53;;;1.27;;
46719;SDS011;32452;51.382;-0.002;2023-07-22T06:01:17;6.22;;;1.48;;
46719;SDS011;32452;51.382;-0.002;2023-07-22T06:04:02;4.80;;;1.55;;
46719;SDS011;32452;51.382;-0.002;2023-07-22T06:06:49;3.70;;;1.60;;
46719;SDS011;32452;51.382;-0.002;2023-07-22T06:09:34;4.13;;;1.70;;
46719;SDS011;32452;51.382;-0.002;2023-07-22T06:12:20;5.53;;;1.92;;
46719;SDS011;32452;51.382;-0.002;2023-07-22T06:15:06;6.50;;;2.00;;
46719;SDS011;32452;51.382;-0.002;2023-07-22T06:17:53;6.25;;;2.30;;
46719;SDS011;32452;51.382;-0.002;2023-07-22T06:20:38;3.63;;;2.10;;
46719;SDS011;32452;51.382;-0.002;2023-07-22T06:23:24;7.95;;;3.00;;
46719;SDS011;32452;51.382;-0.002;2023-07-22T06:26:10;4.40;;;1.73;;
46719;SDS011;32452;51.382;-0.002;2023-07-22T06:28:55;6.15;;;2.20;;
46719;SDS011;32452;51.382;-0.002;2023-07-22T06:31:41;11.30;;;2.28;;
46719;SDS011;32452;51.382;-0.002;2023-07-22T06:34:27;8.00;;;2.08;;
46719;SDS011;32452;51.382;-0.002;2023-07-22T06:37:13;8.65;;;2.55;;
46719;SDS011;32452;51.382;-0.002;2023-07-22T06:39:59;8.13;;;2.58;;
46719;SDS011;32452;51.382;-0.002;2023-07-22T06:42:44;6.78;;;1.90;;
46719;SDS011;32452;51.382;-0.002;2023-07-22T06:45:31;11.48;;;2.97;;
46719;SDS011;32452;51.382;-0.002;2023-07-22T06:48:17;4.32;;;1.90;;
46719;SDS011;32452;51.382;-0.002;2023-07-22T06:51:03;4.85;;;2.03;;
46719;SDS011;32452;51.382;-0.002;2023-07-22T06:53:48;8.27;;;2.65;;
46719;SDS011;32452;51.382;-0.002;2023-07-22T06:56:34;6.88;;;2.35;;
46719;SDS011;32452;51.382;-0.002;2023-07-22T06:59:19;7.75;;;2.30;;
46719;SDS011;32452;51.382;-0.002;2023-07-22T07:02:05;5.72;;;2.42;;
46719;SDS011;32452;51.382;-0.002;2023-07-22T07:04:51;5.05;;;2.22;;
46719;SDS011;32452;51.382;-0.002;2023-07-22T07:07:37;8.15;;;2.20;;
46719;SDS011;32452;51.382;-0.002;2023-07-22T07:10:22;6.32;;;2.17;;
46719;SDS011;32452;51.382;-0.002;2023-07-22T07:13:08;5.65;;;2.15;;
46719;SDS011;32452;51.382;-0.002;2023-07-22T07:15:54;5.18;;;2.15;;
46719;SDS011;32452;51.382;-0.002;2023-07-22T07:18:40;10.63;;;3.35;;
46719;SDS011;32452;51.382;-0.002;2023-07-22T07:21:26;4.57;;;1.73;;
46719;SDS011;32452;51.382;-0.002;2023-07-22T07:24:11;6.25;;;2.05;;
46719;SDS011;32452;51.382;-0.002;2023-07-22T07:26:57;4.40;;;1.83;;
46719;SDS011;32452;51.382;-0.002;2023-07-22T07:29:43;4.53;;;1.92;;
46719;SDS011;32452;51.382;-0.002;2023-07-22T07:32:38;7.80;;;2.00;;
46719;SDS011;32452;51.382;-0.002;2023-07-22T07:35:24;7.60;;;2.40;;
46719;SDS011;32452;51.382;-0.002;2023-07-22T07:38:10;6.22;;;1.70;;
46719;SDS011;32452;51.382;-0.002;2023-07-22T07:40:56;5.18;;;2.13;;
46719;SDS011;32452;51.382;-0.002;2023-07-22T07:43:47;7.65;;;2.15;;
46719;SDS011;32452;51.382;-0.002;2023-07-22T07:46:33;3.53;;;1.60;;
46719;SDS011;32452;51.382;-0.002;2023-07-22T07:49:18;7.90;;;2.17;;
46719;SDS011;32452;51.382;-0.002;2023-07-22T07:52:04;4.55;;;1.77;;
46719;SDS011;32452;51.382;-0.002;2023-07-22T07:54:50;4.80;;;1.70;;
46719;SDS011;32452;51.382;-0.002;2023-07-22T07:57:35;6.78;;;2.08;;
46719;SDS011;32452;51.382;-0.002;2023-07-22T08:00:21;6.25;;;1.55;;
46719;SDS011;32452;51.382;-0.002;2023-07-22T08:03:07;4.45;;;1.30;;
46719;SDS011;32452;51.382;-0.002;2023-07-22T08:05:52;5.63;;;1.70;;
46719;SDS011;32452;51.382;-0.002;2023-07-22T08:08:38;3.63;;;1.58;;
46719;SDS011;32452;51.382;-0.002;2023-07-22T08:11:24;5.97;;;1.77;;
46719;SDS011;32452;51.382;-0.002;2023-07-22T08:14:10;4.70;;;1.33;;
46719;SDS011;32452;51.382;-0.002;2023-07-22T08:16:55;2.05;;;1.02;;
46719;SDS011;32452;51.382;-0.002;2023-07-22T08:19:41;2.03;;;1.10;;
46719;SDS011;32452;51.382;-0.002;2023-07-22T08:22:27;2.20;;;1.25;;
46719;SDS011;32452;51.382;-0.002;2023-07-22T08:25:12;5.15;;;1.65;;
46719;SDS011;32452;51.382;-0.002;2023-07-22T08:27:58;6.88;;;1.50;;
46719;SDS011;32452;51.382;-0.002;2023-07-22T08:30:44;2.15;;;1.10;;
46719;SDS011;32452;51.382;-0.002;2023-07-22T08:33:30;3.22;;;1.10;;
46719;SDS011;32452;51.382;-0.002;2023-07-22T08:36:18;4.63;;;1.17;;
46719;SDS011;32452;51.382;-0.002;2023-07-22T08:39:04;5.28;;;1.10;;
46719;SDS011;32452;51.382;-0.002;2023-07-22T08:41:54;3.95;;;1.30;;
46719;SDS011;32452;51.382;-0.002;2023-07-22T08:44:43;4.35;;;1.15;;
46719;SDS011;32452;51.382;-0.002;2023-07-22T08:47:31;6.93;;;1.38;;
46719;SDS011;32452;51.382;-0.002;2023-07-22T08:50:19;3.85;;;1.45;;
46719;SDS011;32452;51.382;-0.002;2023-07-22T08:53:07;5.30;;;1.55;;
46719;SDS011;32452;51.382;-0.002;2023-07-22T08:55:57;4.65;;;1.70;;
46719;SDS011;32452;51.382;-0.002;2023-07-22T08:58:43;4.63;;;1.60;;
46719;SDS011;32452;51.382;-0.002;2023-07-22T09:01:34;3.67;;;1.70;;
46719;SDS011;32452;51.382;-0.002;2023-07-22T09:04:25;3.72;;;1.38;;
46719;SDS011;32452;51.382;-0.002;2023-07-22T09:07:22;6.53;;;1.50;;
46719;SDS011;32452;51.382;-0.002;2023-07-22T09:10:12;4.05;;;1.40;;
46719;SDS011;32452;51.382;-0.002;2023-07-22T09:13:00;6.43;;;1.65;;
46719;SDS011;32452;51.382;-0.002;2023-07-22T09:15:48;5.72;;;1.60;;
46719;SDS011;32452;51.382;-0.002;2023-07-22T09:18:40;6.40;;;1.95;;
46719;SDS011;32452;51.382;-0.002;2023-07-22T09:21:27;9.88;;;2.42;;
46719;SDS011;32452;51.382;-0.002;2023-07-22T09:24:23;7.85;;;2.05;;
46719;SDS011;32452;51.382;-0.002;2023-07-22T09:27:11;6.65;;;1.90;;
46719;SDS011;32452;51.382;-0.002;2023-07-22T09:29:56;5.10;;;2.05;;
46719;SDS011;32452;51.382;-0.002;2023-07-22T09:32:42;4.82;;;2.13;;
46719;SDS011;32452;51.382;-0.002;2023-07-22T09:35:28;4.63;;;1.88;;
46719;SDS011;32452;51.382;-0.002;2023-07-22T09:38:22;4.95;;;1.90;;
46719;SDS011;32452;51.382;-0.002;2023-07-22T09:41:09;4.90;;;2.08;;
46719;SDS011;32452;51.382;-0.002;2023-07-22T09:43:55;4.63;;;1.65;;
46719;SDS011;32452;51.382;-0.002;2023-07-22T09:46:41;4.47;;;1.75;;
46719;SDS011;32452;51.382;-0.002;2023-07-22T09:49:31;3.58;;;1.58;;
46719;SDS011;32452;51.382;-0.002;2023-07-22T09:52:16;5.55;;;1.80;;
46719;SDS011;32452;51.382;-0.002;2023-07-22T09:55:02;7.82;;;1.85;;
46719;SDS011;32452;51.382;-0.002;2023-07-22T10:00:47;5.65;;;1.98;;
46719;SDS011;32452;51.382;-0.002;2023-07-22T10:03:34;3.85;;;1.90;;
46719;SDS011;32452;51.382;-0.002;2023-07-22T10:06:24;6.18;;;1.80;;
46719;SDS011;32452;51.382;-0.002;2023-07-22T10:09:13;4.10;;;1.70;;
46719;SDS011;32452;51.382;-0.002;2023-07-22T10:12:00;5.38;;;1.65;;
46719;SDS011;32452;51.382;-0.002;2023-07-22T10:14:48;7.78;;;1.95;;
46719;SDS011;32452;51.382;-0.002;2023-07-22T10:17:34;5.80;;;2.00;;
46719;SDS011;32452;51.382;-0.002;2023-07-22T10:20:20;4.32;;;2.08;;
46719;SDS011;32452;51.382;-0.002;2023-07-22T10:23:06;6.85;;;2.22;;
46719;SDS011;32452;51.382;-0.002;2023-07-22T10:25:57;3.08;;;1.50;;
46719;SDS011;32452;51.382;-0.002;2023-07-22T10:28:44;7.75;;;2.25;;
46719;SDS011;32452;51.382;-0.002;2023-07-22T10:31:31;6.20;;;2.35;;
46719;SDS011;32452;51.382;-0.002;2023-07-22T10:34:16;12.88;;;2.65;;
46719;SDS011;32452;51.382;-0.002;2023-07-22T10:37:05;12.45;;;2.92;;
46719;SDS011;32452;51.382;-0.002;2023-07-22T10:39:53;11.50;;;2.97;;
46719;SDS011;32452;51.382;-0.002;2023-07-22T10:43:05;7.13;;;2.35;;
46719;SDS011;32452;51.382;-0.002;2023-07-22T10:45:52;7.20;;;2.60;;
46719;SDS011;32452;51.382;-0.002;2023-07-22T10:48:39;5.50;;;2.03;;
46719;SDS011;32452;51.382;-0.002;2023-07-22T10:51:27;7.75;;;2.38;;
46719;SDS011;32452;51.382;-0.002;2023-07-22T10:54:31;6.32;;;2.28;;
46719;SDS011;32452;51.382;-0.002;2023-07-22T11:00:04;7.22;;;2.47;;
46719;SDS011;32452;51.382;-0.002;2023-07-22T11:03:09;5.93;;;2.38;;
46719;SDS011;32452;51.382;-0.002;2023-07-22T11:05:56;5.60;;;2.80;;
46719;SDS011;32452;51.382;-0.002;2023-07-22T11:08:41;5.50;;;2.08;;
46719;SDS011;32452;51.382;-0.002;2023-07-22T11:11:37;5.90;;;1.83;;
46719;SDS011;32452;51.382;-0.002;2023-07-22T11:14:25;5.22;;;2.42;;
46719;SDS011;32452;51.382;-0.002;2023-07-22T11:17:12;6.50;;;2.10;;
46719;SDS011;32452;51.382;-0.002;2023-07-22T11:19:59;6.90;;;2.00;;
46719;SDS011;32452;51.382;-0.002;2023-07-22T11:22:46;6.00;;;1.95;;
46719;SDS011;32452;51.382;-0.002;2023-07-22T11:25:33;6.50;;;1.83;;
46719;SDS011;32452;51.382;-0.002;2023-07-22T11:28:19;4.47;;;1.58;;
46719;SDS011;32452;51.382;-0.002;2023-07-22T11:31:05;4.18;;;1.88;;
46719;SDS011;32452;51.382;-0.002;2023-07-22T11:33:50;5.15;;;2.38;;
46719;SDS011;32452;51.382;-0.002;2023-07-22T11:36:36;3.13;;;1.73;;
46719;SDS011;32452;51.382;-0.002;2023-07-22T11:39:23;7.93;;;2.28;;
46719;SDS011;32452;51.382;-0.002;2023-07-22T11:42:09;7.32;;;1.85;;
46719;SDS011;32452;51.382;-0.002;2023-07-22T11:44:56;6.50;;;2.03;;
46719;SDS011;32452;51.382;-0.002;2023-07-22T11:47:42;6.97;;;2.00;;
46719;SDS011;32452;51.382;-0.002;2023-07-22T11:50:33;4.22;;;1.88;;
46719;SDS011;32452;51.382;-0.002;2023-07-22T11:53:19;9.43;;;2.03;;
46719;SDS011;32452;51.382;-0.002;2023-07-22T11:56:04;6.38;;;1.88;;
46719;SDS011;32452;51.382;-0.002;2023-07-22T11:58:56;6.70;;;2.00;;
46719;SDS011;32452;51.382;-0.002;2023-07-22T12:01:43;7.55;;;2.30;;
46719;SDS011;32452;51.382;-0.002;2023-07-22T12:04:29;5.80;;;2.47;;
46719;SDS011;32452;51.382;-0.002;2023-07-22T12:07:49;6.85;;;2.58;;
46719;SDS011;32452;51.382;-0.002;2023-07-22T12:10:27;8.15;;;2.40;;
46719;SDS011;32452;51.382;-0.002;2023-07-22T12:13:13;7.60;;;2.92;;
46719;SDS011;32452;51.382;-0.002;2023-07-22T12:15:59;11.45;;;3.10;;
46719;SDS011;32452;51.382;-0.002;2023-07-22T12:18:50;7.10;;;2.92;;
46719;SDS011;32452;51.382;-0.002;2023-07-22T12:21:38;10.50;;;3.42;;
46719;SDS011;32452;51.382;-0.002;2023-07-22T12:24:24;8.82;;;3.80;;
46719;SDS011;32452;51.382;-0.002;2023-07-22T12:27:10;10.07;;;3.30;;
46719;SDS011;32452;51.382;-0.002;2023-07-22T12:29:55;8.68;;;3.58;;
46719;SDS011;32452;51.382;-0.002;2023-07-22T12:32:41;9.88;;;2.83;;
46719;SDS011;32452;51.382;-0.002;2023-07-22T12:35:27;8.52;;;3.80;;
46719;SDS011;32452;51.382;-0.002;2023-07-22T12:38:13;10.05;;;3.13;;
46719;SDS011;32452;51.382;-0.002;2023-07-22T12:40:59;7.95;;;3.42;;
46719;SDS011;32452;51.382;-0.002;2023-07-22T12:43:45;10.10;;;3.85;;
46719;SDS011;32452;51.382;-0.002;2023-07-22T12:46:31;10.70;;;3.20;;
46719;SDS011;32452;51.382;-0.002;2023-07-22T12:49:16;8.70;;;3.55;;
46719;SDS011;32452;51.382;-0.002;2023-07-22T12:52:02;9.65;;;3.65;;
46719;SDS011;32452;51.382;-0.002;2023-07-22T12:54:49;5.68;;;2.80;;
46719;SDS011;32452;51.382;-0.002;2023-07-22T12:57:40;7.95;;;3.10;;
46719;SDS011;32452;51.382;-0.002;2023-07-22T13:00:26;9.32;;;3.17;;
46719;SDS011;32452;51.382;-0.002;2023-07-22T13:03:12;10.65;;;3.88;;
46719;SDS011;32452;51.382;-0.002;2023-07-22T13:05:58;8.40;;;4.25;;
46719;SDS011;32452;51.382;-0.002;2023-07-22T13:08:43;8.82;;;3.53;;
46719;SDS011;32452;51.382;-0.002;2023-07-22T13:11:29;9.77;;;3.67;;
46719;SDS011;32452;51.382;-0.002;2023-07-22T13:14:15;9.43;;;3.60;;
46719;SDS011;32452;51.382;-0.002;2023-07-22T13:17:02;11.20;;;3.90;;
46719;SDS011;32452;51.382;-0.002;2023-07-22T13:19:48;8.90;;;3.45;;
46719;SDS011;32452;51.382;-0.002;2023-07-22T13:22:40;9.07;;;3.60;;
46719;SDS011;32452;51.382;-0.002;2023-07-22T13:25:26;8.32;;;3.75;;
46719;SDS011;32452;51.382;-0.002;2023-07-22T13:28:11;11.48;;;4.20;;
46719;SDS011;32452;51.382;-0.002;2023-07-22T13:30:57;10.68;;;4.20;;
46719;SDS011;32452;51.382;-0.002;2023-07-22T13:33:42;11.35;;;4.53;;
46719;SDS011;32452;51.382;-0.002;2023-07-22T13:36:28;13.30;;;5.53;;
46719;SDS011;32452;51.382;-0.002;2023-07-22T13:39:14;12.95;;;4.97;;
46719;SDS011;32452;51.382;-0.002;2023-07-22T13:42:00;12.95;;;5.30;;
46719;SDS011;32452;51.382;-0.002;2023-07-22T13:44:45;11.30;;;5.07;;
46719;SDS011;32452;51.382;-0.002;2023-07-22T13:47:31;10.18;;;4.50;;
46719;SDS011;32452;51.382;-0.002;2023-07-22T13:50:17;13.80;;;6.07;;
46719;SDS011;32452;51.382;-0.002;2023-07-22T13:53:03;11.05;;;5.60;;
46719;SDS011;32452;51.382;-0.002;2023-07-22T13:55:49;11.38;;;5.03;;
46719;SDS011;32452;51.382;-0.002;2023-07-22T13:58:37;13.60;;;5.85;;
46719;SDS011;32452;51.382;-0.002;2023-07-22T14:01:22;12.73;;;5.72;;
46719;SDS011;32452;51.382;-0.002;2023-07-22T14:04:08;13.30;;;6.03;;
46719;SDS011;32452;51.382;-0.002;2023-07-22T14:06:54;9.90;;;4.57;;
46719;SDS011;32452;51.382;-0.002;2023-07-22T14:09:39;14.68;;;5.47;;
46719;SDS011;32452;51.382;-0.002;2023-07-22T14:12:25;11.38;;;5.47;;
46719;SDS011;32452;51.382;-0.002;2023-07-22T14:15:11;14.30;;;5.70;;
46719;SDS011;32452;51.382;-0.002;2023-07-22T14:17:56;11.88;;;5.00;;
46719;SDS011;32452;51.382;-0.002;2023-07-22T14:20:42;10.02;;;5.35;;
46719;SDS011;32452;51.382;-0.002;2023-07-22T14:23:28;10.95;;;5.22;;
46719;SDS011;32452;51.382;-0.002;2023-07-22T14:26:14;11.48;;;4.90;;
46719;SDS011;32452;51.382;-0.002;2023-07-22T14:28:59;11.25;;;4.38;;
46719;SDS011;32452;51.382;-0.002;2023-07-22T14:31:45;11.55;;;5.60;;
46719;SDS011;32452;51.382;-0.002;2023-07-22T14:34:31;11.20;;;4.15;;
46719;SDS011;32452;51.382;-0.002;2023-07-22T14:37:17;9.95;;;4.90;;
46719;SDS011;32452;51.382;-0.002;2023-07-22T14:40:02;9.55;;;4.53;;
46719;SDS011;32452;51.382;-0.002;2023-07-22T14:42:49;12.45;;;5.35;;
46719;SDS011;32452;51.382;-0.002;2023-07-22T14:45:35;10.50;;;5.15;;
46719;SDS011;32452;51.382;-0.002;2023-07-22T14:48:21;12.15;;;5.10;;
46719;SDS011;32452;51.382;-0.002;2023-07-22T14:51:06;12.93;;;5.70;;
46719;SDS011;32452;51.382;-0.002;2023-07-22T14:53:52;13.32;;;6.15;;
46719;SDS011;32452;51.382;-0.002;2023-07-22T14:56:37;12.00;;;5.30;;
46719;SDS011;32452;51.382;-0.002;2023-07-22T14:59:23;13.70;;;6.22;;
46719;SDS011;32452;51.382;-0.002;2023-07-22T15:02:09;11.15;;;6.00;;
46719;SDS011;32452;51.382;-0.002;2023-07-22T15:04:55;11.38;;;5.35;;
46719;SDS011;32452;51.382;-0.002;2023-07-22T15:07:41;14.40;;;6.20;;
46719;SDS011;32452;51.382;-0.002;2023-07-22T15:10:26;17.27;;;6.50;;
46719;SDS011;32452;51.382;-0.002;2023-07-22T15:13:13;16.30;;;5.85;;
46719;SDS011;32452;51.382;-0.002;2023-07-22T15:15:59;18.52;;;6.97;;
46719;SDS011;32452;51.382;-0.002;2023-07-22T15:18:45;17.20;;;5.70;;
46719;SDS011;32452;51.382;-0.002;2023-07-22T15:21:31;21.02;;;7.53;;
46719;SDS011;32452;51.382;-0.002;2023-07-22T15:24:16;17.55;;;7.60;;
46719;SDS011;32452;51.382;-0.002;2023-07-22T15:27:06;15.30;;;6.20;;
46719;SDS011;32452;51.382;-0.002;2023-07-22T15:29:51;17.77;;;7.13;;
46719;SDS011;32452;51.382;-0.002;2023-07-22T15:32:37;15.10;;;6.72;;
46719;SDS011;32452;51.382;-0.002;2023-07-22T15:35:23;15.45;;;6.22;;
46719;SDS011;32452;51.382;-0.002;2023-07-22T15:38:09;15.32;;;5.80;;
46719;SDS011;32452;51.382;-0.002;2023-07-22T15:40:55;12.75;;;5.80;;
46719;SDS011;32452;51.382;-0.002;2023-07-22T15:43:40;13.20;;;5.95;;
46719;SDS011;32452;51.382;-0.002;2023-07-22T15:46:26;13.75;;;6.05;;
46719;SDS011;32452;51.382;-0.002;2023-07-22T15:49:11;14.73;;;6.20;;
46719;SDS011;32452;51.382;-0.002;2023-07-22T15:51:57;16.73;;;6.55;;
46719;SDS011;32452;51.382;-0.002;2023-07-22T15:54:43;11.68;;;5.90;;
46719;SDS011;32452;51.382;-0.002;2023-07-22T15:57:28;14.35;;;5.78;;
46719;SDS011;32452;51.382;-0.002;2023-07-22T16:00:14;13.77;;;5.82;;
46719;SDS011;32452;51.382;-0.002;2023-07-22T16:03:00;12.88;;;6.22;;
46719;SDS011;32452;51.382;-0.002;2023-07-22T16:05:45;12.48;;;5.50;;
46719;SDS011;32452;51.382;-0.002;2023-07-22T16:08:31;13.57;;;5.82;;
46719;SDS011;32452;51.382;-0.002;2023-07-22T16:11:17;17.75;;;7.25;;
46719;SDS011;32452;51.382;-0.002;2023-07-22T16:14:02;16.38;;;6.47;;
46719;SDS011;32452;51.382;-0.002;2023-07-22T16:16:48;15.90;;;6.18;;
46719;SDS011;32452;51.382;-0.002;2023-07-22T16:19:34;19.50;;;6.85;;
46719;SDS011;32452;51.382;-0.002;2023-07-22T16:22:19;18.30;;;7.15;;
46719;SDS011;32452;51.382;-0.002;2023-07-22T16:25:05;14.77;;;6.22;;
46719;SDS011;32452;51.382;-0.002;2023-07-22T16:27:51;15.80;;;6.22;;
46719;SDS011;32452;51.382;-0.002;2023-07-22T16:30:37;14.93;;;6.00;;
46719;SDS011;32452;51.382;-0.002;2023-07-22T16:33:22;16.15;;;6.13;;
46719;SDS011;32452;51.382;-0.002;2023-07-22T16:36:08;10.70;;;5.68;;